Time;durP1;ratioP1;P1;durP2;ratioP2;P2;SDS_P1;SDS_P2;PMS_P1;PMS_P2;Temp;Humidity;BMP_temperature;BMP_pressure;BME280_temperature;BME280_humidity;BME280_pressure;Samples;Min_cycle;Max_cycle;Signal;HPM_P1;HPM_P2
2023/06/19 00:00:41;;;;;;;9.88;8.88;;;21.40;78.90;;;;;;5034741;28;20509;-80
2023/06/19 00:03:07;;;;;;;10.13;9.13;;;21.40;78.90;;;;;;5016645;28;20163;-80
2023/06/19 00:05:33;;;;;;;11.13;9.73;;;21.40;78.90;;;;;;5016923;28;20629;-81
2023/06/19 00:07:59;;;;;;;9.77;8.77;;;21.40;78.90;;;;;;5016680;28;20239;-81
2023/06/19 00:10:25;;;;;;;10.30;9.25;;;21.40;78.90;;;;;;5016788;28;20163;-82
2023/06/19 00:12:51;;;;;;;10.07;9.07;;;21.50;78.90;;;;;;5016587;28;20606;-81
2023/06/19 00:15:17;;;;;;;10.95;9.77;;;21.40;78.90;;;;;;5016470;28;20241;-82
2023/06/19 00:17:43;;;;;;;9.70;8.80;;;21.40;78.70;;;;;;5016447;28;20622;-82
2023/06/19 00:20:10;;;;;;;10.13;9.07;;;21.40;78.90;;;;;;5000091;28;20167;-81
2023/06/19 00:22:36;;;;;;;10.25;9.25;;;21.40;78.90;;;;;;5016396;28;20161;-82
2023/06/19 00:25:02;;;;;;;10.30;9.27;;;21.40;78.80;;;;;;5000074;28;20167;-81
2023/06/19 00:27:28;;;;;;;10.27;9.18;;;21.40;79.50;;;;;;5034012;28;20159;-82
2023/06/19 00:29:54;;;;;;;9.73;8.73;;;21.40;78.70;;;;;;5016072;28;20177;-80
2023/06/19 00:32:20;;;;;;;11.30;10.10;;;21.50;78.60;;;;;;5016814;28;20154;-81
2023/06/19 00:34:46;;;;;;;10.10;9.02;;;21.40;78.60;;;;;;5016059;28;20210;-79
2023/06/19 00:37:13;;;;;;;10.73;9.63;;;21.40;78.60;;;;;;5016177;28;20147;-81
2023/06/19 00:39:40;;;;;;;10.57;9.48;;;21.40;78.60;;;;;;5033940;28;20595;-81
2023/06/19 00:42:06;;;;;;;10.25;9.25;;;21.50;78.70;;;;;;5016375;28;20243;-82
2023/06/19 00:44:32;;;;;;;10.00;9.00;;;21.40;78.70;;;;;;5033732;28;20268;-81
2023/06/19 00:46:58;;;;;;;11.00;9.70;;;21.50;78.50;;;;;;5033370;28;20699;-83
2023/06/19 00:49:26;;;;;;;11.27;9.30;;;21.40;78.50;;;;;;4999444;28;20261;-81
2023/06/19 00:51:52;;;;;;;10.38;9.10;;;21.40;78.50;;;;;;5016009;28;20162;-81
2023/06/19 00:54:18;;;;;;;10.57;9.48;;;21.40;78.70;;;;;;5033482;28;20182;-83
2023/06/19 00:56:44;;;;;;;10.27;9.27;;;21.40;79.40;;;;;;5015832;28;20648;-82
2023/06/19 00:59:18;;;;;;;10.15;9.15;;;21.40;78.60;;;;;;5033852;28;20165;-79
2023/06/19 01:01:44;;;;;;;10.77;9.68;;;21.50;78.60;;;;;;4999404;28;20167;-80
2023/06/19 01:04:10;;;;;;;10.30;9.23;;;21.40;78.70;;;;;;5015913;28;20224;-81
2023/06/19 01:06:57;;;;;;;10.43;9.32;;;21.40;78.70;;;;;;5033347;28;20162;-81
2023/06/19 01:09:25;;;;;;;10.60;9.50;;;21.40;78.70;;;;;;5033588;28;20171;-82
2023/06/19 01:11:54;;;;;;;10.50;9.45;;;21.40;78.70;;;;;;5015576;28;20520;-80
2023/06/19 01:14:24;;;;;;;10.43;9.43;;;21.40;78.70;;;;;;5033425;28;20616;-82
2023/06/19 01:16:50;;;;;;;11.05;9.50;;;21.30;78.60;;;;;;5015139;28;20173;-82
2023/06/19 01:19:18;;;;;;;10.63;9.52;;;21.40;78.60;;;;;;5033214;28;20155;-81
2023/06/19 01:21:44;;;;;;;11.13;10.02;;;21.50;78.70;;;;;;5015993;28;20157;-82
2023/06/19 01:24:10;;;;;;;10.38;9.27;;;21.40;78.60;;;;;;5015476;28;20151;-82
2023/06/19 01:26:36;;;;;;;11.02;9.70;;;21.40;78.60;;;;;;4999041;28;20174;-82
2023/06/19 01:29:01;;;;;;;10.50;9.40;;;21.40;78.60;;;;;;5015451;28;20159;-81
2023/06/19 01:31:32;;;;;;;10.50;9.40;;;21.40;78.60;;;;;;5015426;28;20151;-80
2023/06/19 01:33:58;;;;;;;10.50;9.40;;;21.40;78.60;;;;;;5033164;28;20645;-81
2023/06/19 01:36:24;;;;;;;10.30;9.20;;;21.40;78.70;;;;;;5015481;28;20166;-83
2023/06/19 01:38:50;;;;;;;10.70;9.60;;;21.40;78.70;;;;;;4998779;28;20182;-80
2023/06/19 01:41:16;;;;;;;10.60;9.50;;;21.40;78.60;;;;;;5015350;28;20635;-78
2023/06/19 01:43:42;;;;;;;10.93;9.82;;;21.40;78.70;;;;;;5015325;28;20594;-79
2023/06/19 01:46:08;;;;;;;10.48;9.40;;;21.40;78.70;;;;;;5015248;28;20162;-82
2023/06/19 01:48:36;;;;;;;10.60;9.50;;;21.40;78.50;;;;;;5032727;28;20226;-83
2023/06/19 01:51:03;;;;;;;10.73;9.63;;;21.50;78.50;;;;;;4998983;28;20655;-81
2023/06/19 01:53:31;;;;;;;10.50;9.18;;;21.40;78.50;;;;;;4999020;28;20198;-80
2023/06/19 01:55:58;;;;;;;10.70;9.63;;;21.40;78.50;;;;;;5015636;28;20238;-84
2023/06/19 01:58:24;;;;;;;10.43;9.32;;;21.40;78.40;;;;;;5015316;28;20509;-83
2023/06/19 02:00:50;;;;;;;10.23;9.23;;;21.40;78.50;;;;;;5000094;28;20220;-82
2023/06/19 02:03:16;;;;;;;11.70;9.73;;;21.40;78.50;;;;;;5019074;28;20151;-83
2023/06/19 02:05:42;;;;;;;10.95;9.85;;;21.30;78.50;;;;;;5018972;28;20279;-83
2023/06/19 02:08:08;;;;;;;10.80;9.57;;;21.40;78.50;;;;;;5019151;28;20222;-80
2023/06/19 02:10:34;;;;;;;10.80;9.70;;;21.40;78.40;;;;;;5019024;28;20151;-83
2023/06/19 02:13:00;;;;;;;11.05;9.80;;;21.40;78.50;;;;;;5002438;28;20258;-84
2023/06/19 02:15:26;;;;;;;11.13;10.00;;;21.40;78.50;;;;;;5018836;28;20174;-81
2023/06/19 02:17:54;;;;;;;10.73;9.63;;;21.40;78.40;;;;;;5018832;28;20182;-80
2023/06/19 02:20:22;;;;;;;11.35;10.15;;;21.40;78.20;;;;;;5018937;28;20159;-80
2023/06/19 02:22:48;;;;;;;10.95;9.85;;;21.40;78.20;;;;;;5018943;28;20151;-83
2023/06/19 02:25:14;;;;;;;11.02;9.82;;;21.40;78.20;;;;;;5018721;28;20158;-80
2023/06/19 02:27:40;;;;;;;10.73;9.60;;;21.30;78.20;;;;;;5036262;28;20633;-82
2023/06/19 02:30:06;;;;;;;10.85;9.77;;;21.40;78.40;;;;;;5036213;28;20518;-83
2023/06/19 02:32:32;;;;;;;10.70;9.65;;;21.40;78.30;;;;;;5018565;28;20166;-84
2023/06/19 02:34:58;;;;;;;10.63;9.52;;;21.40;78.30;;;;;;5018339;28;20186;-81
2023/06/19 02:37:24;;;;;;;11.00;9.82;;;21.40;78.10;;;;;;5018373;28;20155;-81
2023/06/19 02:39:50;;;;;;;10.57;9.45;;;21.40;78.30;;;;;;5018647;28;20209;-83
2023/06/19 02:42:16;;;;;;;10.25;9.15;;;21.30;78.10;;;;;;5001791;28;20194;-83
2023/06/19 02:44:43;;;;;;;10.60;9.50;;;21.40;78.30;;;;;;5018231;28;20529;-83
2023/06/19 02:47:08;;;;;;;10.57;9.50;;;21.40;78.30;;;;;;5035738;28;20289;-82
2023/06/19 02:49:34;;;;;;;11.18;9.98;;;21.40;78.30;;;;;;5018063;28;20170;-82
2023/06/19 02:52:00;;;;;;;10.52;9.43;;;21.40;78.30;;;;;;5018439;28;20220;-82
2023/06/19 02:54:26;;;;;;;10.90;9.70;;;21.40;78.30;;;;;;5035660;28;20185;-83
2023/06/19 02:56:52;;;;;;;10.85;9.75;;;21.40;78.30;;;;;;5017795;28;20644;-81
2023/06/19 02:59:18;;;;;;;10.88;9.77;;;21.40;78.20;;;;;;5035577;28;20162;-81
2023/06/19 03:01:44;;;;;;;10.55;9.48;;;21.40;78.20;;;;;;5001465;28;20163;-80
2023/06/19 03:04:10;;;;;;;10.20;9.20;;;21.40;78.30;;;;;;5035762;28;20158;-83
2023/06/19 03:06:39;;;;;;;11.13;9.85;;;21.40;78.20;;;;;;5018451;28;20555;-83
2023/06/19 03:09:11;;;;;;;11.13;9.93;;;21.40;78.20;;;;;;5035400;28;20178;-79
2023/06/19 03:11:39;;;;;;;10.95;9.85;;;21.40;78.30;;;;;;5034639;28;20161;-83
2023/06/19 03:14:07;;;;;;;10.98;9.68;;;21.40;78.20;;;;;;5017095;28;20237;-80
2023/06/19 03:16:33;;;;;;;10.80;9.70;;;21.40;79.00;;;;;;5001460;28;20163;-79
2023/06/19 03:18:59;;;;;;;10.93;9.82;;;21.40;78.00;;;;;;5001755;28;20166;-82
2023/06/19 03:21:26;;;;;;;10.75;9.75;;;21.40;78.10;;;;;;5001028;28;20178;-81
2023/06/19 03:23:51;;;;;;;10.82;9.68;;;21.40;78.00;;;;;;5017994;28;20174;-81
2023/06/19 03:26:19;;;;;;;10.77;9.68;;;21.40;78.00;;;;;;5002400;28;20167;-80
2023/06/19 03:28:47;;;;;;;10.43;9.32;;;21.40;78.10;;;;;;5018101;28;20209;-81
2023/06/19 03:31:13;;;;;;;10.93;9.82;;;21.40;78.10;;;;;;5018274;28;20178;-81
2023/06/19 03:33:39;;;;;;;11.30;10.10;;;21.40;78.10;;;;;;5018244;28;20186;-81
2023/06/19 03:36:05;;;;;;;11.52;10.15;;;21.40;78.10;;;;;;5036149;28;20159;-82
2023/06/19 03:38:31;;;;;;;11.05;9.80;;;21.40;78.00;;;;;;5036132;28;20151;-80
2023/06/19 03:40:57;;;;;;;10.52;9.45;;;21.40;78.10;;;;;;5002119;28;20204;-80
2023/06/19 03:43:23;;;;;;;11.20;10.10;;;21.40;78.10;;;;;;5035913;28;20163;-81
2023/06/19 03:45:49;;;;;;;11.02;9.82;;;21.40;78.00;;;;;;5018100;28;20621;-80
2023/06/19 03:48:16;;;;;;;10.73;9.57;;;21.40;77.90;;;;;;5001509;28;20230;-80
2023/06/19 03:50:42;;;;;;;10.88;9.77;;;21.40;78.00;;;;;;5017940;28;20688;-80
2023/06/19 03:53:08;;;;;;;11.50;10.20;;;21.40;78.00;;;;;;5017823;28;20167;-82
2023/06/19 03:55:34;;;;;;;11.10;9.95;;;21.40;77.90;;;;;;5035581;28;20250;-80
2023/06/19 03:57:59;;;;;;;10.27;9.27;;;21.40;78.00;;;;;;5035759;28;20213;-80
2023/06/19 04:00:25;;;;;;;11.48;10.07;;;21.40;77.80;;;;;;5001119;28;20220;-82
2023/06/19 04:02:51;;;;;;;11.18;10.00;;;21.40;77.80;;;;;;5017539;28;20177;-80
2023/06/19 04:05:17;;;;;;;11.23;10.07;;;21.40;77.70;;;;;;5017696;28;20171;-82
2023/06/19 04:07:43;;;;;;;11.20;10.00;;;21.40;77.80;;;;;;5017457;28;20155;-82
2023/06/19 04:10:11;;;;;;;10.60;9.50;;;21.40;77.80;;;;;;5017879;28;20158;-79
2023/06/19 04:12:37;;;;;;;11.98;9.68;;;21.40;77.70;;;;;;5035669;28;20272;-81
2023/06/19 04:15:04;;;;;;;10.88;9.75;;;21.40;77.60;;;;;;5035174;28;20190;-79
2023/06/19 04:17:30;;;;;;;10.68;9.57;;;21.50;77.80;;;;;;5035497;28;20225;-82
2023/06/19 04:19:56;;;;;;;11.30;10.10;;;21.40;77.70;;;;;;5035189;28;20202;-80
2023/06/19 04:22:21;;;;;;;11.32;10.23;;;21.40;77.70;;;;;;5035072;28;20162;-80
2023/06/19 04:24:47;;;;;;;11.40;10.20;;;21.40;77.80;;;;;;5017095;28;20163;-82
2023/06/19 04:27:13;;;;;;;11.55;10.35;;;21.40;77.90;;;;;;5017195;28;20181;-82
2023/06/19 04:29:39;;;;;;;10.85;9.70;;;21.40;78.00;;;;;;5034900;28;20524;-82
2023/06/19 04:32:11;;;;;;;10.77;9.68;;;21.30;77.80;;;;;;5017472;28;20159;-82
2023/06/19 04:34:46;;;;;;;11.30;10.10;;;21.40;77.80;;;;;;5017882;28;20186;-79
2023/06/19 04:37:12;;;;;;;10.77;9.68;;;21.40;77.80;;;;;;5017958;28;20170;-82
2023/06/19 04:39:38;;;;;;;10.80;9.70;;;21.40;77.90;;;;;;5034956;28;20161;-81
2023/06/19 04:42:04;;;;;;;11.23;10.02;;;21.40;77.90;;;;;;5016812;28;20529;-80
2023/06/19 04:44:33;;;;;;;11.18;10.07;;;21.40;78.00;;;;;;5000797;28;20688;-82
2023/06/19 04:47:01;;;;;;;11.60;10.25;;;21.40;77.80;;;;;;5016995;28;20213;-81
2023/06/19 04:49:29;;;;;;;11.38;10.18;;;21.40;78.00;;;;;;5000641;28;20175;-81
2023/06/19 04:51:56;;;;;;;10.80;9.75;;;21.40;77.90;;;;;;5000741;28;20316;-79
2023/06/19 04:54:22;;;;;;;11.45;10.25;;;21.40;77.80;;;;;;5034568;28;20187;-79
2023/06/19 04:56:48;;;;;;;10.85;9.75;;;21.40;78.00;;;;;;5035112;28;20553;-80
2023/06/19 04:59:17;;;;;;;10.77;9.68;;;21.30;77.90;;;;;;5016414;28;20634;-80
2023/06/19 05:01:44;;;;;;;11.57;10.38;;;21.40;77.80;;;;;;5017293;28;20564;-81
2023/06/19 05:04:11;;;;;;;11.18;10.07;;;21.40;77.80;;;;;;5016620;28;20182;-81
2023/06/19 05:06:42;;;;;;;10.88;9.77;;;21.40;77.60;;;;;;5034340;28;20155;-79
2023/06/19 05:09:08;;;;;;;10.95;9.77;;;21.40;77.60;;;;;;4999798;28;20214;-81
2023/06/19 05:11:34;;;;;;;11.40;10.20;;;21.40;77.50;;;;;;5016654;28;20228;-79
2023/06/19 05:14:00;;;;;;;10.77;9.68;;;21.40;77.60;;;;;;5016121;28;20190;-81
2023/06/19 05:16:29;;;;;;;11.18;9.98;;;21.40;77.60;;;;;;5016384;28;20228;-81
2023/06/19 05:18:55;;;;;;;10.82;9.73;;;21.40;77.70;;;;;;4999403;28;20186;-81
2023/06/19 05:21:21;;;;;;;11.30;10.10;;;21.40;77.60;;;;;;5034212;28;20493;-80
2023/06/19 05:23:50;;;;;;;11.13;9.90;;;21.40;77.40;;;;;;5016117;28;20225;-81
2023/06/19 05:26:16;;;;;;;11.23;10.07;;;21.40;77.40;;;;;;5016664;28;20155;-81
2023/06/19 05:28:42;;;;;;;11.20;10.10;;;21.40;77.40;;;;;;5034213;28;20163;-81
2023/06/19 05:31:12;;;;;;;11.55;10.18;;;21.40;77.30;;;;;;5033894;28;20170;-82
2023/06/19 05:33:38;;;;;;;10.60;9.50;;;21.50;77.40;;;;;;4983262;28;20214;-81
2023/06/19 05:36:04;;;;;;;10.77;9.68;;;21.40;77.40;;;;;;5017864;28;20261;-80
2023/06/19 05:38:30;;;;;;;11.15;9.98;;;21.40;77.40;;;;;;5003149;28;20170;-81
2023/06/19 05:40:57;;;;;;;11.23;10.13;;;21.40;77.40;;;;;;5019546;28;20182;-81
2023/06/19 05:43:24;;;;;;;11.85;10.50;;;21.50;77.80;;;;;;5019643;28;20614;-81
2023/06/19 05:45:51;;;;;;;11.20;10.00;;;21.50;78.20;;;;;;5037173;28;20188;-81
2023/06/19 05:48:16;;;;;;;11.20;10.00;;;21.40;78.50;;;;;;5019998;28;20230;-80
2023/06/19 05:50:43;;;;;;;10.88;9.77;;;21.40;78.60;;;;;;5019744;28;20155;-81
2023/06/19 05:53:09;;;;;;;10.85;9.80;;;21.30;78.70;;;;;;5003241;28;20174;-81
2023/06/19 05:55:34;;;;;;;11.18;10.07;;;21.30;79.00;;;;;;5019385;28;20165;-80
2023/06/19 05:58:00;;;;;;;10.98;9.88;;;21.30;79.40;;;;;;5019757;28;20563;-81
2023/06/19 06:00:26;;;;;;;10.88;9.77;;;21.20;79.40;;;;;;5019777;28;20170;-80
2023/06/19 06:02:52;;;;;;;10.82;9.73;;;21.20;79.80;;;;;;5036835;28;20163;-80
2023/06/19 06:05:20;;;;;;;11.05;9.95;;;21.20;79.80;;;;;;5019746;28;20625;-81
2023/06/19 06:07:46;;;;;;;11.10;10.00;;;21.20;80.10;;;;;;5019622;28;20151;-81
2023/06/19 06:10:12;;;;;;;10.68;9.65;;;21.20;80.30;;;;;;5002832;28;20174;-82
2023/06/19 06:12:38;;;;;;;11.13;10.00;;;21.20;80.70;;;;;;5019213;28;20277;-80
2023/06/19 06:15:05;;;;;;;10.93;9.85;;;21.10;81.00;;;;;;5003590;28;20201;-80
2023/06/19 06:17:31;;;;;;;11.30;10.20;;;21.10;81.10;;;;;;5004148;28;20174;-82
2023/06/19 06:20:01;;;;;;;11.00;9.90;;;21.10;81.20;;;;;;5018982;28;20155;-82
2023/06/19 06:22:26;;;;;;;11.50;10.40;;;21.10;81.20;;;;;;4985620;28;20256;-80
2023/06/19 06:24:54;;;;;;;11.05;9.95;;;21.10;81.50;;;;;;5036349;28;20158;-81
2023/06/19 06:27:20;;;;;;;11.13;9.93;;;21.10;81.50;;;;;;5001813;28;20185;-82
2023/06/19 06:29:45;;;;;;;10.95;9.85;;;21.00;81.60;;;;;;5018013;28;20564;-83
2023/06/19 06:32:12;;;;;;;11.55;10.25;;;21.00;81.90;;;;;;5003529;28;20175;-82
2023/06/19 06:34:37;;;;;;;11.50;10.20;;;20.90;81.90;;;;;;5016827;28;20622;-82
2023/06/19 06:37:03;;;;;;;11.10;10.00;;;21.00;82.00;;;;;;5018536;28;20183;-80
2023/06/19 06:39:29;;;;;;;10.80;9.77;;;21.00;82.00;;;;;;5002024;28;20177;-82
2023/06/19 06:41:55;;;;;;;11.18;10.07;;;21.10;82.10;;;;;;5018354;28;20561;-80
2023/06/19 06:44:21;;;;;;;11.60;10.45;;;21.10;82.10;;;;;;5001965;28;20174;-79
2023/06/19 06:46:46;;;;;;;10.52;9.52;;;21.10;82.20;;;;;;5017776;28;20629;-83
2023/06/19 06:49:12;;;;;;;10.75;9.75;;;21.00;82.30;;;;;;5018213;28;20629;-83
2023/06/19 06:51:39;;;;;;;11.15;10.05;;;21.10;82.00;;;;;;5001725;28;20187;-83
2023/06/19 06:54:04;;;;;;;11.27;10.18;;;21.10;82.00;;;;;;5001569;28;20198;-84
2023/06/19 06:56:30;;;;;;;11.43;10.32;;;21.10;82.10;;;;;;5018043;28;20167;-84
2023/06/19 06:58:56;;;;;;;11.32;10.23;;;21.10;82.30;;;;;;5017836;28;20154;-82
2023/06/19 07:01:21;;;;;;;11.65;10.52;;;21.10;82.40;;;;;;5035564;28;20147;-81
2023/06/19 07:03:47;;;;;;;10.57;9.57;;;21.10;82.30;;;;;;5017883;28;20529;-80
2023/06/19 07:06:13;;;;;;;10.88;9.77;;;21.10;82.10;;;;;;5035911;28;20158;-81
2023/06/19 07:08:40;;;;;;;11.77;10.60;;;21.20;82.00;;;;;;5001909;28;20166;-81
2023/06/19 07:11:07;;;;;;;11.23;10.13;;;21.10;82.00;;;;;;5035628;28;20238;-81
2023/06/19 07:13:33;;;;;;;10.68;9.68;;;21.10;82.00;;;;;;5001460;28;20536;-81
2023/06/19 07:15:59;;;;;;;11.10;10.00;;;21.10;82.00;;;;;;5002924;28;20177;-84
2023/06/19 07:18:25;;;;;;;11.45;10.27;;;21.10;81.80;;;;;;5036082;28;20175;-81
2023/06/19 07:20:51;;;;;;;11.65;10.45;;;21.10;82.00;;;;;;5036103;28;20151;-82
2023/06/19 07:23:17;;;;;;;11.13;10.05;;;21.20;82.00;;;;;;5036384;28;20629;-83
2023/06/19 07:25:42;;;;;;;10.98;9.98;;;21.10;82.10;;;;;;5018598;28;20178;-83
2023/06/19 07:28:09;;;;;;;10.63;9.60;;;21.10;82.30;;;;;;5036832;28;20147;-81
2023/06/19 07:30:36;;;;;;;11.27;10.18;;;21.10;82.10;;;;;;5036650;28;20151;-81
2023/06/19 07:33:01;;;;;;;11.30;10.20;;;21.10;82.40;;;;;;5017728;28;20178;-83
2023/06/19 07:35:27;;;;;;;11.18;10.07;;;21.10;82.40;;;;;;5018313;28;20166;-80
2023/06/19 07:37:53;;;;;;;11.25;10.15;;;21.10;82.50;;;;;;5017390;28;20162;-84
2023/06/19 07:40:19;;;;;;;10.95;9.45;;;21.10;82.40;;;;;;5017310;28;20515;-80
2023/06/19 07:42:45;;;;;;;11.18;10.07;;;21.10;82.40;;;;;;5017284;28;20155;-81
2023/06/19 07:45:13;;;;;;;11.48;10.35;;;21.10;82.30;;;;;;5000822;28;20181;-80
2023/06/19 07:47:39;;;;;;;11.63;10.48;;;21.10;82.30;;;;;;5017050;28;20280;-79
2023/06/19 07:50:05;;;;;;;11.13;10.02;;;21.20;82.30;;;;;;5017358;28;20163;-79
2023/06/19 07:52:31;;;;;;;11.48;10.38;;;21.10;82.20;;;;;;5017435;28;20163;-81
2023/06/19 07:54:57;;;;;;;10.68;9.57;;;21.10;82.30;;;;;;5001186;28;20600;-81
2023/06/19 07:57:24;;;;;;;10.57;9.50;;;21.10;82.30;;;;;;5017020;28;20167;-83
2023/06/19 07:59:50;;;;;;;10.50;9.50;;;21.20;82.10;;;;;;4999915;28;20163;-79
2023/06/19 08:02:19;;;;;;;10.43;9.43;;;21.20;81.70;;;;;;5017418;28;20155;-81
2023/06/19 08:04:49;;;;;;;11.80;10.68;;;21.20;81.80;;;;;;4998727;28;20257;-82
2023/06/19 08:07:15;;;;;;;10.57;9.48;;;21.20;81.80;;;;;;4967083;28;20244;-79
2023/06/19 08:09:41;;;;;;;10.80;9.70;;;21.20;81.70;;;;;;5016785;28;20555;-79
2023/06/19 08:12:07;;;;;;;11.02;9.95;;;21.20;81.50;;;;;;4983112;28;20186;-81
2023/06/19 08:14:33;;;;;;;11.05;9.85;;;21.20;81.30;;;;;;5000900;28;20198;-83
2023/06/19 08:16:59;;;;;;;10.13;9.13;;;21.30;81.20;;;;;;5016672;28;20628;-80
2023/06/19 08:19:26;;;;;;;10.38;9.38;;;21.30;80.80;;;;;;5016939;28;20163;-80
2023/06/19 08:21:52;;;;;;;10.85;9.75;;;21.40;80.60;;;;;;4999506;28;20633;-83
2023/06/19 08:24:17;;;;;;;10.52;9.50;;;21.50;80.20;;;;;;4999965;28;20174;-82
2023/06/19 08:26:43;;;;;;;10.15;9.15;;;21.50;80.00;;;;;;5000037;28;20532;-83
2023/06/19 08:29:09;;;;;;;10.13;9.13;;;21.50;79.70;;;;;;5017280;28;20626;-79
2023/06/19 08:31:34;;;;;;;10.52;9.50;;;21.60;79.60;;;;;;5017207;28;20159;-83
2023/06/19 08:34:04;;;;;;;10.57;9.57;;;21.60;79.50;;;;;;5034112;28;20182;-83
2023/06/19 08:36:30;;;;;;;11.32;9.85;;;21.50;79.60;;;;;;5000480;28;20158;-82
2023/06/19 08:38:56;;;;;;;10.98;9.88;;;21.50;79.60;;;;;;5016150;28;20261;-79
2023/06/19 08:41:21;;;;;;;10.70;9.60;;;21.50;79.80;;;;;;5034521;28;20581;-80
2023/06/19 08:43:47;;;;;;;10.50;9.50;;;21.50;79.80;;;;;;5016458;28;20158;-79
2023/06/19 08:46:15;;;;;;;10.77;9.68;;;21.50;79.60;;;;;;5016257;28;20155;-82
2023/06/19 08:48:41;;;;;;;10.27;9.27;;;21.50;79.50;;;;;;5031584;28;20222;-80
2023/06/19 08:51:11;;;;;;;10.85;9.73;;;21.50;79.30;;;;;;5053799;28;20150;-81
2023/06/19 08:53:45;;;;;;;11.30;10.10;;;21.50;79.20;;;;;;4970402;28;20213;-80
2023/06/19 08:56:11;;;;;;;10.90;9.80;;;21.60;79.20;;;;;;5036210;28;20150;-83
2023/06/19 08:58:37;;;;;;;10.90;9.85;;;21.60;78.90;;;;;;5035794;28;20162;-81
2023/06/19 09:01:03;;;;;;;11.57;10.40;;;21.60;78.60;;;;;;5035975;28;20146;-81
2023/06/19 09:03:28;;;;;;;11.43;10.15;;;21.60;78.60;;;;;;5035968;28;20181;-79
2023/06/19 09:05:54;;;;;;;11.57;10.48;;;21.60;78.60;;;;;;5036126;28;20170;-80
2023/06/19 09:08:20;;;;;;;10.98;9.88;;;21.60;78.10;;;;;;5035946;28;20548;-78
2023/06/19 09:11:01;;;;;;;10.68;9.57;;;21.70;78.20;;;;;;5035737;28;20613;-81
2023/06/19 09:13:29;;;;;;;11.35;9.88;;;21.60;78.40;;;;;;5035435;28;20182;-80
2023/06/19 09:16:00;;;;;;;11.20;10.07;;;21.60;78.30;;;;;;5035900;28;20173;-79
2023/06/19 09:18:25;;;;;;;11.15;10.05;;;21.70;78.10;;;;;;5036118;28;20241;-80
2023/06/19 09:20:53;;;;;;;11.23;10.13;;;21.60;78.00;;;;;;5020028;28;20201;-81
2023/06/19 09:23:19;;;;;;;11.50;10.00;;;21.70;78.00;;;;;;5021191;28;20166;-83
2023/06/19 09:25:47;;;;;;;10.90;9.68;;;21.70;78.00;;;;;;5055596;28;20501;-83
2023/06/19 09:28:21;;;;;;;12.25;10.30;;;21.60;77.80;;;;;;5037552;28;20501;-81
2023/06/19 09:31:05;;;;;;;9.98;8.98;;;21.70;77.80;;;;;;5036688;28;20241;-82
2023/06/19 09:33:31;;;;;;;10.70;9.70;;;21.80;77.10;;;;;;5020423;28;20200;-82
2023/06/19 09:35:58;;;;;;;9.85;8.93;;;21.80;77.30;;;;;;5036821;28;20147;-81
2023/06/19 09:38:26;;;;;;;9.57;8.52;;;21.80;77.30;;;;;;5004868;28;20177;-82
2023/06/19 09:40:54;;;;;;;11.25;10.13;;;21.80;76.90;;;;;;5037074;28;20162;-81
2023/06/19 09:43:24;;;;;;;10.20;9.20;;;21.80;77.00;;;;;;5036617;28;20158;-81
2023/06/19 09:45:50;;;;;;;10.88;9.20;;;21.80;77.30;;;;;;5020197;28;20160;-81
2023/06/19 09:48:20;;;;;;;9.85;8.85;;;21.80;77.10;;;;;;5036175;28;20308;-83
2023/06/19 09:50:50;;;;;;;12.43;9.65;;;21.80;77.00;;;;;;5039237;28;20162;-81
2023/06/19 09:53:17;;;;;;;10.13;8.90;;;21.80;77.20;;;;;;5056495;28;20680;-80
2023/06/19 09:55:43;;;;;;;10.50;8.98;;;21.80;77.20;;;;;;5038754;28;20174;-80
2023/06/19 09:58:08;;;;;;;11.40;9.52;;;21.80;77.00;;;;;;5036920;28;20170;-81
2023/06/19 10:00:34;;;;;;;10.25;9.23;;;21.80;76.70;;;;;;5055179;28;20162;-81
2023/06/19 10:03:02;;;;;;;10.98;9.07;;;21.80;76.90;;;;;;5036324;28;20531;-82
2023/06/19 10:05:32;;;;;;;9.43;8.48;;;21.80;77.40;;;;;;5020063;28;20169;-81
2023/06/19 10:07:59;;;;;;;10.15;9.10;;;21.70;76.60;;;;;;5020469;28;20732;-81
2023/06/19 10:10:26;;;;;;;9.85;8.85;;;21.70;76.70;;;;;;5019509;28;20245;-83
2023/06/19 10:12:55;;;;;;;10.38;8.80;;;21.70;76.60;;;;;;5014644;28;20634;-83
2023/06/19 10:15:22;;;;;;;10.18;9.13;;;21.70;76.80;;;;;;5031231;28;20194;-81
2023/06/19 10:17:51;;;;;;;9.50;8.20;;;21.70;77.10;;;;;;5032312;28;20170;-81
2023/06/19 10:20:31;;;;;;;9.52;8.52;;;21.70;77.00;;;;;;5014893;28;20169;-83
2023/06/19 10:22:58;;;;;;;9.43;8.50;;;21.70;77.00;;;;;;5034344;28;20155;-81
2023/06/19 10:25:27;;;;;;;9.25;8.35;;;21.70;77.00;;;;;;5018827;28;20265;-82
2023/06/19 10:27:52;;;;;;;8.38;7.55;;;21.70;77.10;;;;;;5001774;28;20174;-81
2023/06/19 10:30:19;;;;;;;9.50;8.30;;;21.70;77.10;;;;;;5034860;28;20171;-84
2023/06/19 10:32:46;;;;;;;9.32;8.43;;;21.70;77.30;;;;;;5036825;28;20155;-82
2023/06/19 10:35:13;;;;;;;9.52;8.48;;;21.60;77.30;;;;;;5036149;28;20194;-82
2023/06/19 10:37:39;;;;;;;8.82;7.93;;;21.60;78.30;;;;;;5049246;28;20158;-82
2023/06/19 10:40:10;;;;;;;9.82;8.18;;;21.60;77.50;;;;;;5021914;28;20158;-82
2023/06/19 10:42:37;;;;;;;9.23;8.25;;;21.60;77.70;;;;;;5005516;28;20182;-84
2023/06/19 10:45:06;;;;;;;9.20;8.30;;;21.60;77.80;;;;;;5039942;28;20158;-83
2023/06/19 10:47:33;;;;;;;9.55;8.55;;;21.50;77.80;;;;;;4973288;28;20252;-83
2023/06/19 10:49:59;;;;;;;8.30;7.50;;;21.50;77.80;;;;;;5047421;28;20628;-81
2023/06/19 10:52:24;;;;;;;9.10;8.15;;;21.60;78.00;;;;;;5014533;28;20177;-83
2023/06/19 10:54:54;;;;;;;8.52;7.72;;;21.60;78.00;;;;;;5058185;28;20224;-83
2023/06/19 10:57:29;;;;;;;10.07;8.20;;;21.70;77.70;;;;;;5040456;28;20181;-84
2023/06/19 10:59:54;;;;;;;8.82;7.90;;;21.70;77.70;;;;;;5025030;28;20172;-85
2023/06/19 11:02:21;;;;;;;8.90;8.00;;;21.70;77.60;;;;;;5039432;28;20154;-81
2023/06/19 11:04:46;;;;;;;8.98;8.07;;;21.70;77.70;;;;;;5022207;28;20237;-82
2023/06/19 11:07:12;;;;;;;10.50;8.48;;;21.70;77.60;;;;;;5037574;28;20243;-81
2023/06/19 11:09:38;;;;;;;9.50;8.35;;;21.60;77.80;;;;;;5037780;28;20599;-83
2023/06/19 11:12:07;;;;;;;9.15;7.97;;;21.60;78.00;;;;;;5037482;28;20166;-83
2023/06/19 11:14:39;;;;;;;9.18;8.10;;;21.60;78.00;;;;;;5038536;28;20181;-81
2023/06/19 11:17:05;;;;;;;11.20;8.45;;;21.60;78.10;;;;;;5021706;28;20219;-80
2023/06/19 11:19:33;;;;;;;8.90;8.02;;;21.60;78.10;;;;;;5037988;28;20668;-83
2023/06/19 11:22:00;;;;;;;8.80;7.90;;;21.50;78.10;;;;;;5037915;28;20150;-82
2023/06/19 11:24:27;;;;;;;10.27;7.93;;;21.60;78.30;;;;;;5055259;28;20150;-81
2023/06/19 11:26:54;;;;;;;9.07;7.50;;;21.50;78.70;;;;;;5038057;28;20208;-81
2023/06/19 11:29:22;;;;;;;8.48;7.30;;;21.50;79.10;;;;;;5021262;28;20177;-83
2023/06/19 11:31:48;;;;;;;8.13;7.32;;;21.50;79.40;;;;;;5037374;28;20617;-84
2023/06/19 11:34:14;;;;;;;8.10;7.30;;;21.50;79.60;;;;;;5019760;28;20197;-83
2023/06/19 11:36:40;;;;;;;8.75;7.85;;;21.50;80.20;;;;;;5021247;28;20155;-82
2023/06/19 11:39:15;;;;;;;8.10;7.28;;;21.50;80.30;;;;;;5021258;28;20163;-84
2023/06/19 11:41:41;;;;;;;9.50;8.15;;;21.50;80.70;;;;;;5005214;28;20154;-82
2023/06/19 11:44:09;;;;;;;8.25;7.45;;;21.40;81.30;;;;;;5020623;28;20158;-83
2023/06/19 11:46:35;;;;;;;8.90;8.02;;;21.40;81.40;;;;;;5020697;28;20163;-83
2023/06/19 11:49:18;;;;;;;8.05;7.25;;;21.30;81.70;;;;;;5054943;28;20158;-84
2023/06/19 11:51:44;;;;;;;8.80;7.90;;;21.30;82.30;;;;;;5037471;28;20150;-82
2023/06/19 11:54:14;;;;;;;8.88;7.95;;;21.30;82.30;;;;;;5019294;28;20216;-83
2023/06/19 11:56:40;;;;;;;8.75;7.85;;;21.20;82.90;;;;;;5019887;28;20250;-82
2023/06/19 11:59:06;;;;;;;8.15;7.35;;;21.20;83.40;;;;;;5019719;28;20692;-79
2023/06/19 12:01:33;;;;;;;7.95;7.15;;;21.20;83.80;;;;;;5004699;28;20284;-83
2023/06/19 12:04:00;;;;;;;8.00;7.20;;;21.20;84.20;;;;;;5020619;28;20661;-81
2023/06/19 12:06:27;;;;;;;8.27;7.47;;;21.20;84.40;;;;;;5020295;28;20248;-84
2023/06/19 12:08:53;;;;;;;8.85;7.95;;;21.10;84.60;;;;;;5054694;28;20154;-81
2023/06/19 12:11:19;;;;;;;8.50;7.35;;;21.10;85.00;;;;;;5020672;28;20628;-82
2023/06/19 12:13:45;;;;;;;7.63;6.85;;;21.10;85.20;;;;;;5036632;28;20192;-80
2023/06/19 12:16:11;;;;;;;7.65;6.82;;;21.10;85.40;;;;;;5035525;28;20162;-83
2023/06/19 12:18:37;;;;;;;7.68;6.88;;;21.10;85.50;;;;;;5019146;28;20158;-85
2023/06/19 12:21:04;;;;;;;7.93;7.22;;;21.10;85.90;;;;;;5036975;28;20162;-81
2023/06/19 12:23:29;;;;;;;8.73;7.82;;;21.20;85.90;;;;;;5036838;28;20162;-84
2023/06/19 12:25:55;;;;;;;8.15;7.25;;;21.10;86.80;;;;;;5036447;28;20187;-83
2023/06/19 12:28:21;;;;;;;8.43;7.43;;;21.10;86.30;;;;;;5036226;28;20155;-83
2023/06/19 12:30:49;;;;;;;8.32;7.53;;;21.10;86.50;;;;;;5037007;28;20216;-84
2023/06/19 12:33:14;;;;;;;8.15;7.35;;;21.10;86.50;;;;;;5020639;28;20158;-80